Abdaly, Kuwait

7:16 AM AST on October 25, 2014 (GMT +0300)
Abdally | Change Station
CLOSE
Current Station
Personal Weather Station
Location: Abdally, JAHRA
Elevation: 46 ft
Nearby Weather Stations

Elev 46 ft 30.03 °N, 47.75 °E | Updated 6 minutes ago

Clear
Clear
70.0 °F
Feels Like 70.0 °F
N
4.0
Wind Variable Wind from WNW
Gusts 7.0 mph

Today
High -- | Low -- °F
--% Chance of Precip.
Yesterday
High -- | Low -- °F
Precip. -- in
5:57 AM 5:08 PM
New Moon, 2% visible
Pressure 29.95 in
Visibility -9999.0 miles
Clouds
Dew Point 49 °F
Humidity 48%
Rainfall 0.00 in
Snow Depth Not available.
UV Not available.
Pollen Not available.
Air Quality Not available.
Flu Activity Not available.
METAR ORMM 250400Z 28008KT CAVOK 19/12 Q1014 NOSIG

More Conditions Fewer Conditions

Pressure 29.95 in
Visibility -9999.0 miles
Clouds
Dew Point 49 °F
Humidity 48%
Rainfall 0.00 in
Snow Depth Not available.
UV Not available.
Pollen Not available.
Air Quality Not available.
Flu Activity Not available.
METAR ORMM 250400Z 28008KT CAVOK 19/12 Q1014 NOSIG

More Conditions Fewer Conditions

10-Day Weather Forecast

Almanac

Astronomy

Oct. 25, 2014 Rise Set
Actual Time 5:57 AM AST 5:08 PM AST
Civil Twilight 5:33 AM AST 5:32 PM AST
Nautical Twilight 5:05 AM AST 6:00 PM AST
Astronomical Twilight 4:37 AM AST 6:28 PM AST
Moon 7:09 AM AST 6:19 PM AST
Length of Visible Light 11h 59m
Length of Day
11h 10m
Tomorrow will be 1m 39s shorter.
New Moon, 2% of the Moon is Illuminated
Today
New Moon
Oct 30
First Quarter
Nov 6
Full
Nov 14
Last Quarter
Nov 22
New

Yesterday's Extremes

Country Highs Country Lows

Community

WunderPhotos

Upload Photos

1,764,779 photos uploaded!

Nearby

Snow Depth

Not available.

Earthquake Activity

City Distance Mag. Time & Date
No recent earthquake activity has been reported nearby.
Minimum magnitude displayed is 2.5.

Coastal Water Temperatures

Place Temperature
No Stations Reporting

Nearby Weather Stations